Juina, Brazil
Current Conditions -  °F | °C
As of 6:00 PM on Thursday 23 Oct 2014 (Local Time) from SBVH Reporting Station
Broken Clouds Broken Clouds  
Wind Chill: 75°   Ceiling: 2000
Heat Index: 75°   Visibility: 6mi
Dew Point: 70°   Wind: 5mph
Humidity: 83%   Direction: 300°WNW
Pressure: 29.83"   Gusts: NA
Location:  11.38°S, 58.74°W
Report Text: SBVH 232100Z 30004KT 9999 BKN020 FEW023TCU 24/21 Q1010 RETS
Loading
Personal Weather Stations






























Interactive Weather Map
Tropical Storm Tracking
New forecast layout! Learn more

10-Day Weather Forecast

Advertisements
Track Severe Weather on mobile